Time;durP1;ratioP1;P1;durP2;ratioP2;P2;SDS_P1;SDS_P2;PMS_P1;PMS_P2;Temp;Humidity;BMP_temperature;BMP_pressure;BME280_temperature;BME280_humidity;BME280_pressure;Samples;Min_cycle;Max_cycle;Signal;HPM_P1;HPM_P2
2022/08/15 00:00:43;;;;;;;1999.90;999.90;;;21.50;99.90;;;;;;5116582;28;20483;-86
2022/08/15 00:03:27;;;;;;;1999.90;999.90;;;21.50;99.90;;;;;;5098266;28;20051;-91
2022/08/15 00:05:54;;;;;;;1999.90;999.90;;;21.50;99.90;;;;;;5116370;28;20051;-92
2022/08/15 00:08:20;;;;;;;1999.90;999.90;;;21.50;99.90;;;;;;5116327;28;20062;-91
2022/08/15 00:10:47;;;;;;;1999.90;999.90;;;21.40;99.90;;;;;;5117692;28;20139;-89
2022/08/15 00:13:21;;;;;;;1999.90;999.90;;;21.40;99.90;;;;;;5116371;28;20055;-94
2022/08/15 00:15:48;;;;;;;1999.90;999.90;;;21.40;99.90;;;;;;5116553;28;20055;-92
2022/08/15 00:18:16;;;;;;;1999.90;999.90;;;21.40;99.90;;;;;;5115942;28;20134;-93
2022/08/15 00:20:42;;;;;;;1999.90;999.90;;;21.30;99.90;;;;;;5117240;28;20051;-93
2022/08/15 00:23:17;;;;;;;1999.90;999.90;;;21.30;99.90;;;;;;5117084;28;20090;-89
2022/08/15 00:25:47;;;;;;;1999.90;999.90;;;21.30;99.90;;;;;;5116539;28;20309;-92
2022/08/15 00:28:14;;;;;;;1999.90;999.90;;;21.30;99.90;;;;;;5116117;28;20035;-89
2022/08/15 00:30:41;;;;;;;1999.90;999.90;;;21.30;99.90;;;;;;5116266;28;20040;-93
2022/08/15 00:33:07;;;;;;;1999.90;999.90;;;21.30;99.90;;;;;;5116040;28;20104;-86
2022/08/15 00:35:37;;;;;;;1999.90;999.90;;;21.30;99.90;;;;;;5116211;28;20083;-92
2022/08/15 00:38:24;;;;;;;1999.90;999.90;;;21.20;99.90;;;;;;5097377;28;20083;-93
2022/08/15 00:43:44;;;;;;;1935.57;999.90;;;21.20;99.90;;;;;;5116850;28;20052;-94
2022/08/15 00:46:13;;;;;;;1999.90;999.90;;;21.10;99.90;;;;;;5115846;28;20077;-91
2022/08/15 00:48:42;;;;;;;1999.90;999.90;;;21.20;99.90;;;;;;5097985;28;20050;-92
2022/08/15 00:51:16;;;;;;;1999.90;999.90;;;21.20;99.90;;;;;;5115311;28;20044;-90
2022/08/15 00:53:49;;;;;;;1999.90;999.90;;;21.10;99.90;;;;;;5115528;28;20044;-93
2022/08/15 00:56:17;;;;;;;1999.90;999.90;;;21.00;99.90;;;;;;5114759;28;20043;-94
2022/08/15 00:58:45;;;;;;;1999.90;999.90;;;21.00;99.90;;;;;;5115137;28;20091;-93
2022/08/15 01:01:12;;;;;;;1999.90;999.90;;;21.00;99.90;;;;;;5114406;28;20550;-85
2022/08/15 01:03:42;;;;;;;1999.90;999.90;;;20.90;99.90;;;;;;5097320;28;20048;-93
2022/08/15 01:06:08;;;;;;;1999.90;999.90;;;20.90;99.90;;;;;;5097481;28;20047;-92
2022/08/15 01:08:37;;;;;;;1999.90;999.90;;;20.90;99.90;;;;;;5096483;28;20048;-93
2022/08/15 01:11:17;;;;;;;1999.90;999.90;;;20.90;99.90;;;;;;5115125;28;20043;-88
2022/08/15 01:13:44;;;;;;;1999.90;999.90;;;20.90;99.90;;;;;;5114912;28;20079;-92
2022/08/15 01:16:10;;;;;;;;;;;20.90;99.90;;;;;;5097138;28;20051;-86
2022/08/15 01:18:37;;;;;;;1995.38;999.90;;;20.80;99.90;;;;;;5114689;28;20383;-91
2022/08/15 01:21:20;;;;;;;1999.90;999.90;;;20.80;99.90;;;;;;5096413;28;20051;-91
2022/08/15 01:24:14;;;;;;;1999.90;999.90;;;20.80;99.90;;;;;;5114851;28;20130;-93
2022/08/15 01:26:40;;;;;;;1999.90;999.90;;;20.80;99.90;;;;;;5114783;28;20047;-92
2022/08/15 01:29:09;;;;;;;1999.90;999.90;;;20.90;99.90;;;;;;5097280;28;20584;-93
2022/08/15 01:31:36;;;;;;;1999.90;999.90;;;20.90;99.90;;;;;;5078667;28;20044;-92
2022/08/15 01:34:03;;;;;;;1999.90;999.90;;;20.90;99.90;;;;;;5114927;28;20047;-92
2022/08/15 01:36:31;;;;;;;1999.90;999.90;;;21.00;99.90;;;;;;5114605;28;20047;-89
2022/08/15 01:39:06;;;;;;;1999.90;999.90;;;21.00;99.90;;;;;;5096703;28;20040;-92
2022/08/15 01:42:01;;;;;;;1999.90;999.90;;;21.10;99.90;;;;;;5113622;28;20119;-86
2022/08/15 01:44:35;;;;;;;1999.90;999.90;;;21.10;99.90;;;;;;5105255;28;20055;-86
2022/08/15 01:47:09;;;;;;;1999.90;999.90;;;21.20;99.90;;;;;;5114955;28;20051;-94
2022/08/15 01:50:07;;;;;;;1999.90;999.90;;;21.30;99.90;;;;;;5114129;28;20158;-92
2022/08/15 01:52:58;;;;;;;1999.90;999.90;;;21.30;99.90;;;;;;5079476;28;20048;-89
2022/08/15 01:55:28;;;;;;;1999.90;999.90;;;21.40;99.90;;;;;;5062623;28;20097;-93
2022/08/15 01:57:54;;;;;;;1999.90;999.90;;;21.40;99.90;;;;;;5114442;28;20047;-92
2022/08/15 02:00:21;;;;;;;1999.90;999.90;;;21.40;99.90;;;;;;5078656;28;20048;-91
2022/08/15 02:02:47;;;;;;;1999.90;999.90;;;21.50;99.90;;;;;;5113564;28;20043;-89
2022/08/15 02:05:13;;;;;;;1999.90;999.90;;;21.50;99.90;;;;;;5114345;28;20043;-92
2022/08/15 02:07:39;;;;;;;1999.90;999.90;;;21.50;99.90;;;;;;5095892;28;20101;-92
2022/08/15 02:10:07;;;;;;;1999.90;999.90;;;21.60;99.90;;;;;;5095453;28;20395;-91
2022/08/15 02:12:36;;;;;;;1957.32;999.90;;;21.60;99.90;;;;;;5095257;28;20047;-91
2022/08/15 02:15:12;;;;;;;1999.90;999.90;;;21.60;99.90;;;;;;5095050;28;20404;-90
2022/08/15 02:17:38;;;;;;;1999.90;999.90;;;21.60;99.90;;;;;;5113066;28;20043;-92
2022/08/15 02:20:05;;;;;;;1766.60;999.90;;;21.50;99.90;;;;;;5113631;28;20396;-92
2022/08/15 02:22:31;;;;;;;1644.80;999.90;;;21.30;99.90;;;;;;5112454;28;20127;-92
2022/08/15 02:24:59;;;;;;;1238.13;999.90;;;21.20;99.90;;;;;;5113006;28;20137;-91
2022/08/15 02:27:31;;;;;;;1542.82;999.90;;;21.10;99.90;;;;;;5113194;28;20052;-92
2022/08/15 02:29:59;;;;;;;1773.22;999.90;;;21.10;99.90;;;;;;5113297;28;20492;-93
2022/08/15 02:32:25;;;;;;;1690.25;999.90;;;21.10;99.90;;;;;;5095145;28;20108;-92
2022/08/15 02:34:52;;;;;;;1999.90;999.90;;;21.10;99.90;;;;;;5113100;28;20040;-92
2022/08/15 02:37:18;;;;;;;1999.90;999.90;;;21.10;99.90;;;;;;5113529;28;20048;-92
2022/08/15 02:39:49;;;;;;;1999.90;999.90;;;21.10;99.90;;;;;;5112718;28;20094;-91
2022/08/15 02:42:17;;;;;;;1708.13;999.90;;;21.10;99.90;;;;;;5113858;28;20584;-92
2022/08/15 02:44:43;;;;;;;1999.90;999.90;;;21.10;99.90;;;;;;5114299;28;20044;-92
2022/08/15 02:47:14;;;;;;;1999.90;999.90;;;21.10;99.90;;;;;;5113629;28;20075;-92
2022/08/15 02:49:41;;;;;;;1999.90;999.90;;;21.10;99.90;;;;;;5094703;28;20047;-91
2022/08/15 02:52:07;;;;;;;1999.90;999.90;;;21.10;99.90;;;;;;5113289;28;20073;-92
2022/08/15 02:54:34;;;;;;;1999.90;999.90;;;21.10;99.90;;;;;;5112887;28;20277;-91
2022/08/15 02:57:01;;;;;;;1890.47;999.90;;;21.10;99.90;;;;;;5094642;28;20488;-90
2022/08/15 02:59:28;;;;;;;1999.90;999.90;;;21.00;99.90;;;;;;5095767;28;20051;-92
2022/08/15 03:01:56;;;;;;;1999.90;999.90;;;20.90;99.90;;;;;;5095236;28;20483;-93
2022/08/15 03:04:23;;;;;;;1999.90;999.90;;;20.90;99.90;;;;;;5096349;28;20044;-87
2022/08/15 03:06:53;;;;;;;1999.90;999.90;;;20.90;99.90;;;;;;5094000;28;20048;-91
2022/08/15 03:09:20;;;;;;;1999.90;999.90;;;20.80;99.90;;;;;;5078072;28;20079;-92
2022/08/15 03:11:46;;;;;;;1999.90;999.90;;;20.70;99.90;;;;;;5112075;28;20052;-92
2022/08/15 03:14:16;;;;;;;1999.90;999.90;;;20.60;99.90;;;;;;5112840;28;20492;-93
2022/08/15 03:16:44;;;;;;;1999.90;999.90;;;20.60;99.90;;;;;;5112141;28;20052;-93
2022/08/15 03:19:16;;;;;;;1999.90;999.90;;;20.50;99.90;;;;;;5094778;28;20043;-94
2022/08/15 03:21:43;;;;;;;1999.90;999.90;;;20.40;99.90;;;;;;5093585;28;20495;-93
2022/08/15 03:24:09;;;;;;;1999.90;999.90;;;20.40;99.90;;;;;;5095222;28;20127;-92
2022/08/15 03:26:35;;;;;;;1999.90;999.90;;;20.40;99.90;;;;;;5093885;28;20050;-93
2022/08/15 03:29:02;;;;;;;1999.90;999.90;;;20.30;99.90;;;;;;5113101;28;20047;-87
2022/08/15 03:31:28;;;;;;;1999.90;999.90;;;20.30;99.90;;;;;;5111795;28;20048;-87
2022/08/15 03:33:53;;;;;;;1999.90;999.90;;;20.20;99.90;;;;;;5113368;28;20149;-91
2022/08/15 03:36:21;;;;;;;1999.90;999.90;;;20.10;99.90;;;;;;5113524;28;20051;-91
2022/08/15 03:38:47;;;;;;;1999.90;999.90;;;20.10;99.90;;;;;;5112302;28;20528;-94
2022/08/15 03:41:14;;;;;;;1999.90;999.90;;;20.10;99.90;;;;;;5095860;28;20044;-86
2022/08/15 03:43:42;;;;;;;1999.90;999.90;;;20.10;99.90;;;;;;5121061;28;20075;-93
2022/08/15 03:46:17;;;;;;;1999.90;999.90;;;20.00;99.90;;;;;;5113278;28;20104;-93
2022/08/15 03:48:48;;;;;;;1999.90;999.90;;;20.00;99.90;;;;;;5094317;28;20043;-93
2022/08/15 03:51:16;;;;;;;1999.90;999.90;;;20.00;99.90;;;;;;5113151;28;20050;-92
2022/08/15 03:53:55;;;;;;;1999.90;999.90;;;19.90;99.90;;;;;;5113195;28;20051;-92
2022/08/15 03:56:24;;;;;;;1999.90;999.90;;;19.90;99.90;;;;;;5111815;28;20142;-92
2022/08/15 03:58:51;;;;;;;1999.90;999.90;;;19.80;99.90;;;;;;5111641;28;20484;-93
2022/08/15 04:01:27;;;;;;;1999.90;999.90;;;19.80;99.90;;;;;;5112902;28;20213;-93
2022/08/15 04:03:54;;;;;;;1999.90;999.90;;;19.80;99.90;;;;;;5112202;28;20054;-91
2022/08/15 04:06:22;;;;;;;1968.93;999.90;;;19.70;99.90;;;;;;5112457;28;20040;-94
2022/08/15 04:08:50;;;;;;;1999.90;999.90;;;19.70;99.90;;;;;;5111109;28;20044;-93
2022/08/15 04:11:17;;;;;;;1999.90;999.90;;;19.70;99.90;;;;;;5111782;28;20048;-93
2022/08/15 04:13:45;;;;;;;1921.28;999.90;;;19.70;99.90;;;;;;5111919;28;20043;-93
2022/08/15 04:16:12;;;;;;;1999.90;999.90;;;19.70;99.90;;;;;;5094147;28;20043;-94
2022/08/15 04:18:38;;;;;;;1999.90;999.90;;;19.60;99.90;;;;;;5111813;28;20055;-92
2022/08/15 04:21:07;;;;;;;1999.90;999.90;;;19.60;99.90;;;;;;5112103;28;20054;-93
2022/08/15 04:23:34;;;;;;;1910.72;999.90;;;19.60;99.90;;;;;;5112275;28;20134;-87
2022/08/15 04:25:59;;;;;;;1980.43;999.90;;;19.60;99.90;;;;;;5094262;28;20039;-92
2022/08/15 04:28:28;;;;;;;1999.90;999.90;;;19.60;99.90;;;;;;5094279;28;20067;-92
2022/08/15 04:30:54;;;;;;;1999.90;999.90;;;19.50;99.90;;;;;;5093317;28;20100;-92
2022/08/15 04:33:29;;;;;;;1999.90;999.90;;;19.50;99.90;;;;;;5095908;28;20040;-94
2022/08/15 04:35:58;;;;;;;1999.90;999.90;;;19.60;99.90;;;;;;5098758;28;20065;-91
2022/08/15 04:38:24;;;;;;;1999.90;999.90;;;19.50;99.90;;;;;;5116265;28;20079;-89
2022/08/15 04:40:50;;;;;;;1968.55;999.90;;;19.50;99.90;;;;;;5096898;28;20086;-91
2022/08/15 04:43:18;;;;;;;1999.90;999.90;;;19.40;99.90;;;;;;5115035;28;20043;-89
2022/08/15 04:45:44;;;;;;;1999.90;999.90;;;19.40;99.90;;;;;;5114236;28;20048;-89
2022/08/15 04:48:14;;;;;;;1973.82;999.90;;;19.40;99.90;;;;;;5097362;28;20173;-90
2022/08/15 04:50:42;;;;;;;1999.90;999.90;;;19.40;99.90;;;;;;5080611;28;20047;-91
2022/08/15 04:53:07;;;;;;;;;;;19.40;99.90;;;;;;5102802;28;20046;-90
2022/08/15 04:55:35;;;;;;;1999.90;999.90;;;19.40;99.90;;;;;;5102142;28;19919;-92
2022/08/15 04:58:02;;;;;;;1999.90;999.90;;;19.40;99.90;;;;;;5095941;28;20070;-89
2022/08/15 05:00:30;;;;;;;1999.90;999.90;;;19.40;99.90;;;;;;5096360;28;20055;-89
2022/08/15 05:03:14;;;;;;;1999.90;999.90;;;19.50;99.90;;;;;;5114274;28;20046;-89
2022/08/15 05:05:47;;;;;;;1999.90;999.90;;;19.50;99.90;;;;;;5096620;28;20479;-88
2022/08/15 05:08:12;;;;;;;1999.90;999.90;;;19.50;99.90;;;;;;5079771;28;20132;-88
2022/08/15 05:10:39;;;;;;;1999.90;999.90;;;19.60;99.90;;;;;;5113845;28;20466;-88
2022/08/15 05:13:17;;;;;;;1999.90;999.90;;;19.60;99.90;;;;;;5096444;28;20043;-88
2022/08/15 05:15:45;;;;;;;1999.90;999.90;;;19.60;99.90;;;;;;5114072;28;20040;-88
2022/08/15 05:18:11;;;;;;;;;;;19.60;99.90;;;;;;5114807;28;20039;-88
2022/08/15 05:20:39;;;;;;;1999.90;999.90;;;19.70;99.90;;;;;;5114254;28;19920;-87
2022/08/15 05:23:08;;;;;;;1999.90;999.90;;;19.70;99.90;;;;;;5114890;28;20039;-89
2022/08/15 05:25:37;;;;;;;1999.90;999.90;;;19.70;99.90;;;;;;5114926;28;20495;-88
2022/08/15 05:28:04;;;;;;;1999.90;999.90;;;19.80;99.90;;;;;;5114333;28;20044;-89
2022/08/15 05:30:30;;;;;;;1999.90;999.90;;;19.90;99.90;;;;;;5097005;28;20104;-91
2022/08/15 05:33:17;;;;;;;1999.90;999.90;;;20.00;99.90;;;;;;5113422;28;20436;-91
2022/08/15 05:35:46;;;;;;;1999.90;999.90;;;20.00;99.90;;;;;;5096033;28;20486;-91
2022/08/15 05:38:17;;;;;;;1999.90;999.90;;;20.10;99.90;;;;;;5114094;28;20036;-91
2022/08/15 05:40:53;;;;;;;1999.90;999.90;;;20.20;99.90;;;;;;5113941;28;20059;-89
2022/08/15 05:43:46;;;;;;;1977.32;999.90;;;20.30;99.90;;;;;;5113841;28;20392;-89
2022/08/15 05:46:27;;;;;;;1999.90;999.90;;;20.40;99.90;;;;;;5115374;28;20091;-89
2022/08/15 05:49:10;;;;;;;1999.90;999.90;;;20.50;99.90;;;;;;5095923;28;20051;-89
2022/08/15 05:51:47;;;;;;;1999.90;999.90;;;20.50;99.90;;;;;;5114375;28;20086;-90
2022/08/15 05:54:46;;;;;;;1999.90;999.90;;;20.60;99.90;;;;;;5114364;28;20040;-89
2022/08/15 05:57:28;;;;;;;1999.90;999.90;;;20.70;99.90;;;;;;5095950;28;20055;-90
2022/08/15 05:59:59;;;;;;;1999.90;999.90;;;20.90;99.90;;;;;;5112818;28;20055;-90
2022/08/15 06:02:41;;;;;;;1906.40;999.90;;;21.00;99.90;;;;;;5114209;28;20130;-91
2022/08/15 06:05:26;;;;;;;1999.90;999.90;;;21.20;99.90;;;;;;5113922;28;20070;-90
2022/08/15 06:07:52;;;;;;;1999.90;999.90;;;21.40;99.90;;;;;;5113240;28;20380;-90
2022/08/15 06:10:28;;;;;;;1999.90;999.90;;;21.50;99.90;;;;;;5113390;28;20047;-90
2022/08/15 06:13:26;;;;;;;1999.90;999.90;;;21.60;99.90;;;;;;5094347;28;20047;-90
2022/08/15 06:16:02;;;;;;;1999.90;999.90;;;21.70;99.90;;;;;;5081937;28;20063;-91
2022/08/15 06:18:30;;;;;;;1999.90;999.90;;;21.80;99.90;;;;;;5113831;28;20487;-89
2022/08/15 06:21:31;;;;;;;1999.90;999.90;;;21.90;99.90;;;;;;5094436;28;20056;-86
2022/08/15 06:24:30;;;;;;;1246.00;999.90;;;22.00;99.90;;;;;;5108146;28;20134;-90
2022/08/15 06:27:10;;;;;;;1331.93;999.90;;;22.20;99.90;;;;;;5113114;28;20489;-88
2022/08/15 06:29:58;;;;;;;1999.90;999.90;;;22.40;99.90;;;;;;5095952;28;20040;-88
2022/08/15 06:32:40;;;;;;;1074.03;960.88;;;22.50;99.90;;;;;;5112953;28;20446;-88
2022/08/15 06:35:14;;;;;;;1762.70;999.90;;;22.60;99.90;;;;;;5095246;28;20048;-89
2022/08/15 06:37:46;;;;;;;1932.40;999.90;;;22.70;99.90;;;;;;5113740;28;20040;-88
2022/08/15 06:40:12;;;;;;;1213.82;999.90;;;22.80;99.90;;;;;;5095232;28;20100;-89
2022/08/15 06:42:41;;;;;;;1414.35;999.90;;;22.90;99.90;;;;;;5094320;28;20138;-89
2022/08/15 06:45:35;;;;;;;1272.55;999.90;;;23.00;99.90;;;;;;5094382;28;20575;-87
2022/08/15 06:48:12;;;;;;;1127.97;999.90;;;23.10;99.90;;;;;;5077390;28;20043;-89
2022/08/15 06:50:41;;;;;;;1999.90;999.90;;;23.30;99.90;;;;;;5113141;28;20051;-89
2022/08/15 06:53:29;;;;;;;1663.38;999.90;;;23.40;99.90;;;;;;5113250;28;20423;-88
2022/08/15 06:56:10;;;;;;;1174.88;999.90;;;23.60;99.90;;;;;;5093025;28;20138;-88
2022/08/15 06:58:45;;;;;;;1221.85;999.90;;;23.70;99.90;;;;;;5074180;28;20052;-88
2022/08/15 07:01:27;;;;;;;1224.90;999.90;;;23.80;99.90;;;;;;5089895;28;20062;-88
2022/08/15 07:04:09;;;;;;;1244.45;999.90;;;23.90;99.90;;;;;;5091761;28;20094;-89
2022/08/15 07:06:41;;;;;;;1258.35;999.90;;;24.10;99.90;;;;;;5091706;28;20052;-88
2022/08/15 07:09:30;;;;;;;1729.63;999.90;;;24.20;99.90;;;;;;5090580;28;20048;-91
2022/08/15 07:12:22;;;;;;;1707.95;999.90;;;24.30;99.90;;;;;;5091129;28;20063;-92
2022/08/15 07:15:12;;;;;;;1413.68;999.90;;;24.40;99.90;;;;;;5082715;28;20068;-92
2022/08/15 07:17:57;;;;;;;1342.95;999.90;;;24.40;99.90;;;;;;5092557;28;20492;-93
2022/08/15 07:20:22;;;;;;;1181.30;999.90;;;24.50;99.90;;;;;;5091752;28;20493;-93
2022/08/15 07:22:48;;;;;;;1221.05;999.90;;;24.50;99.90;;;;;;5091730;28;20040;-89
2022/08/15 07:25:18;;;;;;;1127.70;995.22;;;24.50;98.40;;;;;;5092215;28;20093;-91
2022/08/15 07:27:57;;;;;;;1193.10;999.90;;;24.60;96.70;;;;;;5090647;28;20087;-87
2022/08/15 07:30:37;;;;;;;1473.53;999.90;;;24.60;94.60;;;;;;5092217;28;20040;-89
2022/08/15 07:33:04;;;;;;;1732.85;999.90;;;24.70;92.10;;;;;;5090873;28;20040;-89
2022/08/15 07:35:33;;;;;;;1200.22;999.90;;;24.70;86.80;;;;;;5089841;28;20055;-93
2022/08/15 07:38:08;;;;;;;1584.57;999.90;;;24.70;92.40;;;;;;5092163;28;20040;-92
2022/08/15 07:40:42;;;;;;;845.70;454.60;;;24.80;90.60;;;;;;5092761;28;20044;-94
2022/08/15 07:43:32;;;;;;;1640.13;805.35;;;24.80;85.60;;;;;;5091835;28;20044;-91
2022/08/15 07:46:37;;;;;;;1629.63;941.63;;;24.80;68.30;;;;;;5091581;28;20112;-89
2022/08/15 07:49:14;;;;;;;1990.90;974.20;;;24.90;79.90;;;;;;5074394;28;20052;-92
2022/08/15 07:51:42;;;;;;;1114.75;465.92;;;24.80;81.60;;;;;;5092645;28;20039;-94
2022/08/15 07:54:32;;;;;;;1836.22;921.35;;;24.90;88.50;;;;;;5090937;28;20511;-94
2022/08/15 07:57:02;;;;;;;1999.90;999.90;;;25.10;74.30;;;;;;5091840;28;20090;-87
2022/08/15 07:59:33;;;;;;;1211.65;513.55;;;25.30;82.00;;;;;;5112924;28;20063;-94
2022/08/15 08:02:20;;;;;;;1999.90;999.90;;;25.50;71.60;;;;;;5112511;28;20403;-93
2022/08/15 08:04:46;;;;;;;1999.90;999.90;;;25.60;57.30;;;;;;5112423;28;20054;-94
2022/08/15 08:07:20;;;;;;;1572.70;749.47;;;25.60;62.30;;;;;;5113490;28;20507;-93
2022/08/15 08:10:18;;;;;;;1599.05;781.17;;;25.70;60.90;;;;;;5098620;28;20520;-94
2022/08/15 08:12:46;;;;;;;1785.35;665.47;;;25.60;38.30;;;;;;5063691;28;20419;-94
2022/08/15 08:15:38;;;;;;;1999.90;999.90;;;25.60;52.10;;;;;;5116355;28;20044;-93
2022/08/15 08:18:09;;;;;;;1999.90;999.90;;;25.40;42.50;;;;;;5098238;28;20150;-94
2022/08/15 08:20:58;;;;;;;1612.40;792.58;;;25.30;38.60;;;;;;5117342;28;20044;-91
2022/08/15 08:23:47;;;;;;;1999.90;999.90;;;25.40;46.00;;;;;;5115462;28;20053;-95
2022/08/15 08:26:31;;;;;;;1407.13;642.22;;;25.30;38.40;;;;;;5095582;28;20044;-94
2022/08/15 08:29:13;;;;;;;1999.90;999.90;;;25.60;64.90;;;;;;5097627;28;20040;-95
2022/08/15 08:32:04;;;;;;;1999.90;999.90;;;25.90;41.40;;;;;;5117158;28;20058;-94
2022/08/15 08:34:33;;;;;;;883.42;457.75;;;26.40;20.20;;;;;;5082843;28;20051;-95
2022/08/15 08:37:04;;;;;;;1999.90;999.90;;;27.00;20.20;;;;;;5098952;28;20047;-93
2022/08/15 08:39:51;;;;;;;1999.90;999.90;;;27.40;3.90;;;;;;5118457;28;20044;-91
2022/08/15 08:42:32;;;;;;;1999.90;999.90;;;28.10;1.00;;;;;;5124582;28;20032;-96
2022/08/15 08:45:15;;;;;;;1999.90;999.90;;;28.40;1.00;;;;;;5116345;28;20047;-95
2022/08/15 08:48:19;;;;;;;1999.90;999.90;;;28.30;1.00;;;;;;5116165;28;20048;-93
2022/08/15 08:51:14;;;;;;;1999.90;999.90;;;28.20;1.00;;;;;;5098255;28;20432;-94
2022/08/15 08:54:01;;;;;;;1999.90;999.90;;;28.20;1.00;;;;;;5098602;28;20054;-96
2022/08/15 08:56:38;;;;;;;1106.68;957.13;;;28.30;1.00;;;;;;5115385;28;20039;-94
2022/08/15 08:59:20;;;;;;;1096.88;982.17;;;28.40;1.00;;;;;;5115200;28;20055;-87
2022/08/15 09:01:52;;;;;;;1089.55;980.88;;;28.60;1.00;;;;;;5115914;28;20083;-94
2022/08/15 09:04:23;;;;;;;1164.07;999.90;;;28.80;1.00;;;;;;5115875;28;20051;-91
2022/08/15 09:06:51;;;;;;;1228.63;999.90;;;29.10;1.00;;;;;;5116236;28;20055;-94
2022/08/15 09:09:34;;;;;;;1118.38;998.70;;;30.50;1.00;;;;;;5115498;28;20066;-92
2022/08/15 09:14:59;;;;;;;1191.28;999.90;;;32.20;1.00;;;;;;5115545;28;20476;-95
2022/08/15 09:17:27;;;;;;;1099.85;977.95;;;32.70;1.00;;;;;;5080809;28;20059;-94
2022/08/15 09:20:06;;;;;;;1999.90;999.90;;;32.60;1.00;;;;;;5095461;28;20373;-93
2022/08/15 09:22:32;;;;;;;1999.90;999.90;;;33.60;1.00;;;;;;5113988;28;20051;-95
2022/08/15 09:24:58;;;;;;;1574.40;816.72;;;34.00;1.00;;;;;;5096261;28;20457;-87
2022/08/15 09:27:35;;;;;;;1999.90;999.90;;;34.40;1.00;;;;;;5114370;28;20044;-87
2022/08/15 09:30:11;;;;;;;1999.90;999.90;;;34.60;1.00;;;;;;5096808;28;20087;-87
2022/08/15 09:32:45;;;;;;;1999.90;999.90;;;34.50;1.00;;;;;;5114161;28;20052;-87
2022/08/15 09:35:36;;;;;;;493.90;444.92;;;33.90;1.00;;;;;;5114471;28;20131;-87
2022/08/15 09:38:19;;;;;;;978.58;884.22;;;32.70;1.00;;;;;;5114518;28;20451;-88
2022/08/15 09:41:00;;;;;;;1206.43;999.90;;;31.60;1.00;;;;;;5113962;28;20055;-88
2022/08/15 09:43:45;;;;;;;1056.32;945.40;;;31.90;1.00;;;;;;5113997;28;20051;-88
2022/08/15 09:46:28;;;;;;;1029.95;930.00;;;31.80;1.00;;;;;;5095924;28;20480;-85
2022/08/15 09:48:54;;;;;;;1292.93;963.47;;;32.30;1.00;;;;;;5096282;28;20052;-89
2022/08/15 09:51:33;;;;;;;1999.90;999.90;;;32.90;1.00;;;;;;5113957;28;20043;-88
2022/08/15 09:54:20;;;;;;;1999.90;999.90;;;33.10;1.00;;;;;;5095959;28;20047;-88
2022/08/15 09:56:46;;;;;;;981.58;687.38;;;33.30;1.00;;;;;;5094750;28;20105;-88
2022/08/15 09:59:22;;;;;;;1999.90;999.90;;;34.10;1.00;;;;;;5113556;28;20059;-85
2022/08/15 10:01:52;;;;;;;1201.53;888.70;;;34.60;99.90;;;;;;5113862;28;20051;-88
2022/08/15 10:04:22;;;;;;;790.03;711.67;;;35.00;99.90;;;;;;5078582;28;20134;-87
2022/08/15 10:07:04;;;;;;;1002.78;910.92;;;35.00;99.90;;;;;;5113754;28;20108;-88
2022/08/15 10:09:33;;;;;;;1999.90;999.90;;;35.60;99.90;;;;;;5095239;28;20472;-87
2022/08/15 10:12:08;;;;;;;778.28;696.15;;;35.10;99.90;;;;;;5114153;28;20146;-87
2022/08/15 10:15:03;;;;;;;1999.90;999.90;;;35.50;99.90;;;;;;5093866;28;20094;-86
2022/08/15 10:17:35;;;;;;;1999.90;999.90;;;35.40;99.90;;;;;;5093819;28;20105;-89
2022/08/15 10:20:16;;;;;;;1999.90;999.90;;;35.40;99.90;;;;;;5112166;28;20546;-88
2022/08/15 10:22:59;;;;;;;1999.90;999.90;;;35.30;99.90;;;;;;5096112;28;20048;-88
2022/08/15 10:25:31;;;;;;;773.75;516.75;;;34.90;99.90;;;;;;5113237;28;20043;-87
2022/08/15 10:28:11;;;;;;;726.03;647.45;;;34.20;99.90;;;;;;5113537;28;20050;-88
2022/08/15 10:30:48;;;;;;;993.33;897.42;;;33.20;99.90;;;;;;5113217;28;20126;-87
2022/08/15 10:33:35;;;;;;;1053.00;948.13;;;33.00;99.90;;;;;;5093880;28;20511;-84
2022/08/15 10:36:03;;;;;;;996.83;904.78;;;32.60;99.90;;;;;;5094892;28;20039;-86
2022/08/15 10:38:30;;;;;;;1074.53;958.75;;;31.80;1.00;;;;;;5112324;28;20119;-87
2022/08/15 10:41:21;;;;;;;1115.75;977.13;;;31.30;1.00;;;;;;5113350;28;20047;-86
2022/08/15 10:44:12;;;;;;;1049.97;949.30;;;31.00;1.00;;;;;;5064438;28;20056;-85
2022/08/15 10:47:19;;;;;;;1105.93;987.45;;;30.60;1.00;;;;;;5094645;28;20056;-86
2022/08/15 10:50:00;;;;;;;1064.68;958.45;;;29.90;1.00;;;;;;5060855;28;20059;-86
2022/08/15 10:52:44;;;;;;;1117.70;994.38;;;29.50;1.00;;;;;;5111501;28;20063;-85
2022/08/15 10:55:32;;;;;;;1132.50;999.90;;;28.90;1.00;;;;;;5112564;28;20059;-85
2022/08/15 10:58:32;;;;;;;1122.57;997.55;;;28.50;1.00;;;;;;5112432;28;20480;-86
2022/08/15 11:01:07;;;;;;;1086.43;976.35;;;28.30;1.00;;;;;;5094564;28;20519;-85
2022/08/15 11:03:41;;;;;;;1333.32;991.40;;;28.00;1.00;;;;;;5111924;28;20096;-86
2022/08/15 11:06:14;;;;;;;1999.90;999.90;;;27.70;1.00;;;;;;5113288;28;20081;-84
2022/08/15 11:08:47;;;;;;;1999.90;999.90;;;27.00;18.30;;;;;;5093933;28;20510;-86
2022/08/15 11:11:15;;;;;;;1999.90;999.90;;;26.60;1.00;;;;;;5094077;28;20134;-91
2022/08/15 11:13:43;;;;;;;1999.90;999.90;;;26.40;1.40;;;;;;5112169;28;20048;-86
2022/08/15 11:16:08;;;;;;;1999.90;999.90;;;26.40;1.20;;;;;;5112972;28;20094;-85
2022/08/15 11:18:38;;;;;;;1999.90;999.90;;;26.40;1.50;;;;;;5112188;28;20445;-86
2022/08/15 11:21:17;;;;;;;1999.90;999.90;;;26.50;23.50;;;;;;5111110;28;20559;-86
2022/08/15 11:23:49;;;;;;;1999.90;999.90;;;26.30;69.50;;;;;;5111834;28;20565;-84
2022/08/15 11:26:23;;;;;;;1999.90;999.90;;;26.10;77.20;;;;;;5112617;28;20062;-86
2022/08/15 11:28:56;;;;;;;1924.95;999.90;;;25.80;80.80;;;;;;5112363;28;20040;-87
2022/08/15 11:31:21;;;;;;;1999.90;999.90;;;25.60;76.30;;;;;;5094174;28;20044;-83
2022/08/15 11:33:50;;;;;;;1999.90;999.90;;;25.60;79.90;;;;;;5094075;28;20040;-86
2022/08/15 11:36:25;;;;;;;1999.90;999.90;;;25.70;74.30;;;;;;5112001;28;20432;-85
2022/08/15 11:39:11;;;;;;;1999.90;999.90;;;25.80;69.00;;;;;;5111966;28;20123;-86
2022/08/15 11:41:40;;;;;;;1488.10;687.28;;;26.00;62.80;;;;;;5094693;28;20526;-86
2022/08/15 11:44:09;;;;;;;1999.90;999.90;;;26.30;58.40;;;;;;5117021;28;20131;-85
2022/08/15 11:46:35;;;;;;;1999.90;960.10;;;26.40;49.00;;;;;;5098244;28;20047;-86
2022/08/15 11:49:11;;;;;;;1999.90;999.90;;;26.50;48.60;;;;;;5064948;28;20483;-87
2022/08/15 11:51:45;;;;;;;1779.57;807.00;;;26.50;29.70;;;;;;5116464;28;20098;-85
2022/08/15 11:54:13;;;;;;;1999.90;999.90;;;26.60;29.20;;;;;;5098327;28;20079;-88
2022/08/15 11:56:55;;;;;;;1999.90;999.90;;;26.60;30.90;;;;;;5114880;28;20092;-84
2022/08/15 12:00:01;;;;;;;1999.90;999.90;;;26.70;37.90;;;;;;5094864;28;20062;-87
2022/08/15 12:02:30;;;;;;;1999.90;999.90;;;26.60;20.80;;;;;;5094235;28;20078;-87
2022/08/15 12:04:55;;;;;;;1999.90;999.90;;;26.50;17.30;;;;;;5095616;28;20090;-87
2022/08/15 12:07:29;;;;;;;1999.90;771.47;;;26.40;18.00;;;;;;5095039;28;20424;-87
2022/08/15 12:09:58;;;;;;;1999.90;999.90;;;26.20;17.40;;;;;;5095714;28;20086;-87
2022/08/15 12:12:38;;;;;;;1999.90;999.90;;;26.20;24.80;;;;;;5095506;28;20044;-86
2022/08/15 12:15:07;;;;;;;1999.90;999.90;;;26.40;22.30;;;;;;5095274;28;20585;-87
2022/08/15 12:17:33;;;;;;;1999.90;999.90;;;26.60;23.70;;;;;;5095366;28;20063;-88
2022/08/15 12:19:59;;;;;;;1999.90;999.90;;;26.70;7.30;;;;;;5094128;28;20040;-86
2022/08/15 12:22:35;;;;;;;1999.90;999.90;;;26.70;6.40;;;;;;5093850;28;20054;-87
2022/08/15 12:25:03;;;;;;;1999.90;999.90;;;27.10;8.60;;;;;;5094234;28;20136;-86
2022/08/15 12:27:29;;;;;;;1999.90;999.90;;;27.30;8.00;;;;;;5093693;28;20460;-86
2022/08/15 12:29:55;;;;;;;1999.90;741.95;;;27.30;1.00;;;;;;5095593;28;20123;-87
2022/08/15 12:32:21;;;;;;;1999.90;999.90;;;27.50;1.00;;;;;;5095400;28;20515;-85
2022/08/15 12:34:50;;;;;;;1284.90;516.40;;;27.70;1.00;;;;;;5095317;28;20052;-87
2022/08/15 12:37:20;;;;;;;1999.90;999.90;;;27.70;1.00;;;;;;5095097;28;20087;-87
2022/08/15 12:39:46;;;;;;;1999.90;999.90;;;28.00;1.00;;;;;;5094984;28;20055;-86
2022/08/15 12:42:18;;;;;;;1999.90;999.90;;;27.90;1.00;;;;;;5093694;28;20409;-86